Tuckahoe — WDD9657 — position and weather

sailwx.info

Track history (hours):
 
Tides and Currents Weather Stations Pressure Air Temp Water Temp Dewpoint Dewpoint Depression Visibility Wind Speed Wind Dir Waves Ship Positions

Tuckahoe

Owner: Vane Line Bunkering, Philadelphia, PA. More information available from US FCC via Universal Licensing System and Coast Guard Vessel Documentation Center.

Last reported at 2018-Mar-12 15:52 UTC. Time now 2018-May-22 11:46 UTC.
Position N 39°15' W 076°34'.
Warning: this ship's position is months out of date.

Length 30 m; draft 3.8 m.

Type: Tow > 200 m length. MMSI: 367314520.

Date/timePositionNaut miles runAvg speedWind from/ knotsBaromVisibWave heightAir tempDewpointWater temp
2018-Mar-12 15:52N 39°15' W 076°34'0 0.0
2018-Mar-12 15:20N 39°15' W 076°34'0 0.0
2018-Mar-12 14:51N 39°15' W 076°34'0 0.0
2018-Mar-12 14:29N 39°15' W 076°34'0 0.0
2018-Mar-12 14:00N 39°15' W 076°34'1 2.1
2018-Mar-12 13:30N 39°16' W 076°34'2 3.6
2018-Mar-12 13:00N 39°14' W 076°33'2 2.0
2018-Mar-12 11:58N 39°13' W 076°35'0 0.0
2018-Mar-12 11:30N 39°13' W 076°35'0 0.0
2018-Mar-12 10:52N 39°13' W 076°35'0 0.0
2018-Mar-12 10:30N 39°13' W 076°35'0 0.0
2018-Mar-12 09:56N 39°13' W 076°35'0 0.0
2018-Mar-12 09:26N 39°13' W 076°35'0 0.0
2018-Mar-12 09:00N 39°13' W 076°35'0 0.0
2018-Mar-12 08:30N 39°13' W 076°35'0 0.0
2018-Mar-12 07:58N 39°13' W 076°35'2 4.6
2018-Mar-12 07:30N 39°15' W 076°33'1 1.2
2018-Mar-12 07:00N 39°15' W 076°34'0 0.0
2018-Mar-12 06:30N 39°15' W 076°34'0 0.0
2018-Mar-12 06:00N 39°15' W 076°34'0 0.0
2018-Mar-12 05:30N 39°15' W 076°34'0 0.0
2018-Mar-12 05:00N 39°15' W 076°34'0 0.0
2018-Mar-12 04:30N 39°15' W 076°34'0 0.0
2018-Mar-12 04:00N 39°15' W 076°34'0 0.0
2018-Mar-12 03:30N 39°15' W 076°34'0 0.0
2018-Mar-12 03:00N 39°15' W 076°34'0 0.0
2018-Mar-12 02:30N 39°15' W 076°34'0 0.0
2018-Mar-12 02:00N 39°15' W 076°34'0 0.0
2018-Mar-12 01:30N 39°15' W 076°34'0 0.0
2018-Mar-12 01:00N 39°15' W 076°34'0 0.0
2018-Mar-12 00:30N 39°15' W 076°34'0 0.0
2018-Mar-12 00:00N 39°15' W 076°34'1 1.9
2018-Mar-11 23:30N 39°15' W 076°33'5 9.9
2018-Mar-11 22:58N 39°11' W 076°28'5 9.8
2018-Mar-11 22:30N 39°08' W 076°24'10 9.6
2018-Mar-11 21:25N 38°57' W 076°24'0 0.2
2018-Mar-11 20:55N 38°57' W 076°24'0 0.1
2018-Mar-11 19:45N 38°57' W 076°24'5 7.3
2018-Mar-11 19:05N 39°02' W 076°23'8 9.3
2018-Mar-11 18:13N 39°10' W 076°26'2 9.4
2018-Mar-11 18:00N 39°11' W 076°28'5 9.5
2018-Mar-11 17:30N 39°14' W 076°33'3 5.4
2018-Mar-11 17:00N 39°16' W 076°36'2 3.1
2018-Mar-11 16:30N 39°15' W 076°34'0 0.0
2018-Mar-11 16:00N 39°15' W 076°34'0 0.0
2018-Mar-11 15:30N 39°15' W 076°34'0 0.0
2018-Mar-11 15:00N 39°15' W 076°34'1 1.3
2018-Mar-11 14:30N 39°15' W 076°33'1 1.4
2018-Mar-11 14:01N 39°15' W 076°34'2 3.4
2018-Mar-11 13:30N 39°16' W 076°36'2 3.9
2018-Mar-11 13:00N 39°15' W 076°33'0 0.1
2018-Mar-11 12:31N 39°15' W 076°33'1 1.9
2018-Mar-11 12:00N 39°14' W 076°33'2 4.1
2018-Mar-11 11:30N 39°13' W 076°35'0 0.0
2018-Mar-11 11:00N 39°13' W 076°35'0 0.0
2018-Mar-11 10:30N 39°13' W 076°35'0 0.0
2018-Mar-11 10:00N 39°13' W 076°35'1 2.7
2018-Mar-11 09:30N 39°13' W 076°33'1 2.9
2018-Mar-11 09:00N 39°15' W 076°34'0 0.0
2018-Mar-11 08:29N 39°15' W 076°34'0 0.0
2018-Mar-11 08:00N 39°15' W 076°34'0 0.0
2018-Mar-11 07:30N 39°15' W 076°34'0 0.0
2018-Mar-11 07:00N 39°15' W 076°34'0 0.0
2018-Mar-11 06:28N 39°15' W 076°34'0 0.0
2018-Mar-11 06:00N 39°15' W 076°34'0 0.0
2018-Mar-11 05:29N 39°15' W 076°34'0 0.0
2018-Mar-11 05:00N 39°15' W 076°34'0 0.0
2018-Mar-11 04:29N 39°15' W 076°34'0 0.9
2018-Mar-11 04:00N 39°15' W 076°34'611.0
2018-Mar-11 03:28N 39°11' W 076°28'510.7
2018-Mar-11 02:58N 39°07' W 076°24'15 2.4
2018-Mar-10 20:49N 38°52' W 076°24'0 0.1
2018-Mar-10 20:12N 38°52' W 076°24'18 4.4
2018-Mar-10 16:01N 39°10' W 076°26'010.4
2018-Mar-10 16:00N 39°10' W 076°26'510.3
2018-Mar-10 15:29N 39°13' W 076°32'2 4.8
2018-Mar-10 15:00N 39°13' W 076°35'0 0.0
2018-Mar-10 14:29N 39°13' W 076°35'0 0.0
2018-Mar-10 14:00N 39°13' W 076°35'0 0.0
2018-Mar-10 13:30N 39°13' W 076°35'0 0.0
2018-Mar-10 12:59N 39°13' W 076°35'0 0.0
2018-Mar-10 12:30N 39°13' W 076°35'0 0.0
2018-Mar-10 12:00N 39°13' W 076°35'0 0.0
2018-Mar-10 11:30N 39°13' W 076°35'0 0.0
2018-Mar-10 10:59N 39°13' W 076°35'2 4.0
2018-Mar-10 10:30N 39°14' W 076°33'1 2.7
2018-Mar-10 10:00N 39°15' W 076°34'0 0.0
2018-Mar-10 09:30N 39°15' W 076°34'0 0.0
2018-Mar-10 08:59N 39°15' W 076°34'0 0.0
2018-Mar-10 08:30N 39°15' W 076°34'0 0.0
2018-Mar-10 08:00N 39°15' W 076°34'0 0.0
2018-Mar-10 07:30N 39°15' W 076°34'0 0.0
2018-Mar-10 07:00N 39°15' W 076°34'0 0.0
2018-Mar-10 06:30N 39°15' W 076°34'0 0.0
2018-Mar-10 06:00N 39°15' W 076°34'0 0.0
2018-Mar-10 05:30N 39°15' W 076°34'0 0.0
2018-Mar-10 05:00N 39°15' W 076°34'0 0.0
2018-Mar-10 04:29N 39°15' W 076°34'0 0.0
2018-Mar-10 04:00N 39°15' W 076°34'0 0.0
2018-Mar-10 03:30N 39°15' W 076°34'0 0.0
2018-Mar-10 03:00N 39°15' W 076°34'0 0.0
2018-Mar-10 02:30N 39°15' W 076°34'0 0.0
2018-Mar-10 02:00N 39°15' W 076°34'0 0.0
2018-Mar-10 01:30N 39°15' W 076°34'0 0.0
2018-Mar-10 01:00N 39°15' W 076°34'0 0.0
2018-Mar-10 00:30N 39°15' W 076°34'0 0.0
2018-Mar-10 00:00N 39°15' W 076°34'0 0.0
2018-Mar-09 23:30N 39°15' W 076°34'1 1.8
2018-Mar-09 23:01N 39°15' W 076°33'1 1.2
2018-Mar-09 22:30N 39°15' W 076°33'0 0.0
2018-Mar-09 22:01N 39°15' W 076°33'0 0.0
2018-Mar-09 21:30N 39°15' W 076°33'0 0.0
2018-Mar-09 20:59N 39°15' W 076°33'0 0.2
2018-Mar-09 20:30N 39°15' W 076°33'1 2.6
2018-Mar-09 19:59N 39°13' W 076°33'1 1.3
2018-Mar-09 19:26N 39°14' W 076°34'0 0.0
2018-Mar-09 19:00N 39°14' W 076°34'0 0.0
2018-Mar-09 18:31N 39°14' W 076°34'1 1.4
2018-Mar-09 18:01N 39°13' W 076°33'1 2.9
2018-Mar-09 17:31N 39°15' W 076°34'0 0.0
2018-Mar-09 17:00N 39°15' W 076°34'0 0.0
2018-Mar-09 16:30N 39°15' W 076°34'0 0.1
2018-Mar-09 16:01N 39°15' W 076°34'1 2.7
2018-Mar-09 15:30N 39°13' W 076°34'0 0.5
2018-Mar-09 15:00N 39°14' W 076°34'1 2.2
2018-Mar-09 14:30N 39°15' W 076°34'2 3.6
2018-Mar-09 13:59N 39°13' W 076°35'2 4.3
2018-Mar-09 13:30N 39°15' W 076°33'1 1.4
2018-Mar-09 13:00N 39°15' W 076°34'0 0.0
2018-Mar-09 12:30N 39°15' W 076°34'0 0.0
2018-Mar-09 12:01N 39°15' W 076°34'0 0.0
2018-Mar-09 11:31N 39°15' W 076°34'0 0.0
2018-Mar-09 11:01N 39°15' W 076°34'0 0.0
2018-Mar-09 10:30N 39°15' W 076°34'0 0.0
2018-Mar-09 09:59N 39°15' W 076°34'0 0.0
2018-Mar-09 09:30N 39°15' W 076°34'0 0.0
2018-Mar-09 08:59N 39°15' W 076°34'0 0.0
2018-Mar-09 08:31N 39°15' W 076°34'0 0.0
2018-Mar-09 08:00N 39°15' W 076°34'0 0.0
2018-Mar-09 07:31N 39°15' W 076°34'0 0.0
2018-Mar-09 07:01N 39°15' W 076°34'0 0.0
2018-Mar-09 06:30N 39°15' W 076°34'0 0.0
2018-Mar-09 06:01N 39°15' W 076°34'0 0.0
2018-Mar-09 05:30N 39°15' W 076°34'0 0.0
2018-Mar-09 05:00N 39°15' W 076°34'0 0.0
2018-Mar-09 04:30N 39°15' W 076°34'0 0.0
2018-Mar-09 04:00N 39°15' W 076°34'0 0.0
2018-Mar-09 03:30N 39°15' W 076°34'0 0.0
2018-Mar-09 03:00N 39°15' W 076°34'0 0.0
2018-Mar-09 02:30N 39°15' W 076°34'0 0.0
2018-Mar-09 02:00N 39°15' W 076°34'0 0.0
2018-Mar-09 01:30N 39°15' W 076°34'0 0.0
2018-Mar-09 01:00N 39°15' W 076°34'0 0.0
2018-Mar-09 00:30N 39°15' W 076°34'0 0.0
2018-Mar-09 00:00N 39°15' W 076°34'0 0.0
2018-Mar-08 23:30N 39°15' W 076°34'0 0.0
2018-Mar-08 23:00N 39°15' W 076°34'0 0.0
2018-Mar-08 22:30N 39°15' W 076°34'0 0.0
2018-Mar-08 22:00N 39°15' W 076°34'0 0.0
2018-Mar-08 21:30N 39°15' W 076°34'0 0.0
2018-Mar-08 21:00N 39°15' W 076°34'0 0.0
2018-Mar-08 20:26N 39°15' W 076°34'2 0.1
2018-Mar-07 22:00N 39°15' W 076°32'0 0.0
2018-Mar-07 21:30N 39°15' W 076°32'0 0.0
2018-Mar-07 20:54N 39°15' W 076°32'1 3.7
2018-Mar-07 20:30N 39°15' W 076°34'5 7.9
2018-Mar-07 19:54N 39°12' W 076°29'1 2.9
2018-Mar-07 19:31N 39°13' W 076°29'1 3.0
2018-Mar-07 19:00N 39°12' W 076°30'3 5.8
2018-Mar-07 18:30N 39°15' W 076°32'1 2.8
2018-Mar-07 17:59N 39°13' W 076°32'3 5.3
2018-Mar-07 17:30N 39°13' W 076°29'1 2.4
2018-Mar-07 17:01N 39°12' W 076°29'4 8.3
2018-Mar-07 16:30N 39°13' W 076°35'0 0.6
2018-Mar-07 16:00N 39°13' W 076°34'1 2.7
2018-Mar-07 15:30N 39°14' W 076°34'0 0.6
2018-Mar-07 15:00N 39°15' W 076°34'0 0.6
2018-Mar-07 14:30N 39°14' W 076°34'1 2.5
2018-Mar-07 14:01N 39°13' W 076°34'1 2.6
2018-Mar-07 13:30N 39°14' W 076°33'1 2.4
2018-Mar-07 12:53N 39°15' W 076°34'0 0.0
2018-Mar-07 12:29N 39°15' W 076°34'0 0.0
2018-Mar-07 11:58N 39°15' W 076°34'0 0.0
2018-Mar-07 11:29N 39°15' W 076°34'0 0.0
2018-Mar-07 11:00N 39°15' W 076°34'0 0.0
2018-Mar-07 10:30N 39°15' W 076°34'0 0.0
2018-Mar-07 10:00N 39°15' W 076°34'0 0.0
2018-Mar-07 09:30N 39°15' W 076°34'0 0.0
2018-Mar-07 08:57N 39°15' W 076°34'0 0.0
2018-Mar-07 08:30N 39°15' W 076°34'0 0.0
2018-Mar-07 08:00N 39°15' W 076°34'2 4.8
2018-Mar-07 07:30N 39°13' W 076°32'2 4.4
2018-Mar-07 07:00N 39°13' W 076°29'0 0.0
2018-Mar-07 06:30N 39°13' W 076°29'0 0.0
2018-Mar-07 06:00N 39°13' W 076°29'0 0.0
2018-Mar-07 05:30N 39°13' W 076°29'0 0.0
2018-Mar-07 04:58N 39°13' W 076°29'0 0.0
2018-Mar-07 04:30N 39°13' W 076°29'0 0.0
2018-Mar-07 03:59N 39°13' W 076°29'1 2.2
2018-Mar-07 03:30N 39°12' W 076°30'4 7.2
2018-Mar-07 03:00N 39°15' W 076°32'0 0.6
2018-Mar-07 02:30N 39°15' W 076°33'1 3.0
2018-Mar-07 02:01N 39°13' W 076°33'1 1.5
2018-Mar-07 01:27N 39°13' W 076°34'2 4.3
2018-Mar-07 01:00N 39°15' W 076°32'0 0.0
2018-Mar-07 00:28N 39°15' W 076°32'0 0.0
2018-Mar-07 00:00N 39°15' W 076°32'0 0.0
2018-Mar-06 23:30N 39°15' W 076°32'0 0.0
2018-Mar-06 23:00N 39°15' W 076°32'0 0.0
2018-Mar-06 22:30N 39°15' W 076°32'0 0.0
2018-Mar-06 22:00N 39°15' W 076°32'0 0.0
2018-Mar-06 21:30N 39°15' W 076°32'0 0.0
2018-Mar-06 21:00N 39°15' W 076°32'0 0.0
2018-Mar-06 20:30N 39°15' W 076°32'0 0.0
2018-Mar-06 19:57N 39°15' W 076°32'0 0.0
2018-Mar-06 19:30N 39°15' W 076°32'0 0.0
2018-Mar-06 19:00N 39°15' W 076°32'0 0.0
2018-Mar-06 18:30N 39°15' W 076°32'3 5.1
2018-Mar-06 18:00N 39°13' W 076°35'0 0.4
2018-Mar-06 17:30N 39°13' W 076°35'0 0.0
2018-Mar-06 16:58N 39°13' W 076°35'1 1.5
2018-Mar-06 16:30N 39°13' W 076°34'1 2.5
2018-Mar-06 16:00N 39°14' W 076°33'0 0.4
2018-Mar-06 15:27N 39°15' W 076°33'2 4.4
2018-Mar-06 15:00N 39°13' W 076°35'0 0.7
2018-Mar-06 14:29N 39°13' W 076°34'0 0.7
2018-Mar-06 14:00N 39°13' W 076°35'2 4.3
2018-Mar-06 13:30N 39°15' W 076°33'1 1.2
2018-Mar-06 13:00N 39°15' W 076°34'0 0.0
2018-Mar-06 12:30N 39°15' W 076°34'0 0.0
2018-Mar-06 11:58N 39°15' W 076°34'0 0.0
2018-Mar-06 11:30N 39°15' W 076°34'0 0.0
2018-Mar-06 11:00N 39°15' W 076°34'0 0.0
2018-Mar-06 10:31N 39°15' W 076°34'0 0.0
2018-Mar-06 10:00N 39°15' W 076°34'0 0.0
2018-Mar-06 09:31N 39°15' W 076°34'0 0.0
2018-Mar-06 09:00N 39°15' W 076°34'0 0.0
2018-Mar-06 08:30N 39°15' W 076°34'0 0.0
2018-Mar-06 08:00N 39°15' W 076°34'0 0.0
2018-Mar-06 07:30N 39°15' W 076°34'0 0.0
2018-Mar-06 07:00N 39°15' W 076°34'0 0.0
2018-Mar-06 06:30N 39°15' W 076°34'0 0.0
2018-Mar-06 06:01N 39°15' W 076°34'0 0.0
2018-Mar-06 05:30N 39°15' W 076°34'0 0.0
2018-Mar-06 05:00N 39°15' W 076°34'0 0.0
2018-Mar-06 04:30N 39°15' W 076°34'0 0.0
2018-Mar-06 03:59N 39°15' W 076°34'0 0.0
2018-Mar-06 03:30N 39°15' W 076°34'0 0.0
2018-Mar-06 03:00N 39°15' W 076°34'0 0.0
2018-Mar-06 02:30N 39°15' W 076°34'0 0.0
2018-Mar-06 02:00N 39°15' W 076°34'0 0.0
2018-Mar-06 01:30N 39°15' W 076°34'0 0.0
2018-Mar-06 01:00N 39°15' W 076°34'0 0.0
2018-Mar-06 00:30N 39°15' W 076°34'0 0.0
2018-Mar-06 00:00N 39°15' W 076°34'0 0.0
2018-Mar-05 23:30N 39°15' W 076°34'0 0.0
2018-Mar-05 23:00N 39°15' W 076°34'0 0.0
2018-Mar-05 22:30N 39°15' W 076°34'0 0.0
2018-Mar-05 22:00N 39°15' W 076°34'0 0.0
2018-Mar-05 21:30N 39°15' W 076°34'0 0.0
2018-Mar-05 21:00N 39°15' W 076°34'0 0.0
2018-Mar-05 20:30N 39°15' W 076°34'0 0.1
2018-Mar-05 20:00N 39°15' W 076°34'1 2.1
2018-Mar-05 19:30N 39°16' W 076°34'0 0.0
2018-Mar-05 19:00N 39°16' W 076°34'0 0.0
2018-Mar-05 18:30N 39°16' W 076°34'0 0.0
2018-Mar-05 18:00N 39°16' W 076°34'0 0.0
2018-Mar-05 17:30N 39°16' W 076°34'0 0.0
2018-Mar-05 17:00N 39°16' W 076°34'0 0.1
2018-Mar-05 16:30N 39°16' W 076°34'1 2.1
2018-Mar-05 16:01N 39°15' W 076°34'0 0.0
2018-Mar-05 15:03N 39°15' W 076°34'0 0.0
2018-Mar-05 14:40N 39°15' W 076°34'0 0.0
2018-Mar-05 14:28N 39°15' W 076°34'0 0.0
2018-Mar-05 13:44N 39°15' W 076°34'0 0.0
2018-Mar-05 13:30N 39°15' W 076°34'0 0.0
2018-Mar-05 12:48N 39°15' W 076°34'0 0.0
2018-Mar-05 12:28N 39°15' W 076°34'0 0.0
2018-Mar-05 11:56N 39°15' W 076°34'0 0.0
2018-Mar-05 11:30N 39°15' W 076°34'0 0.0
2018-Mar-05 10:56N 39°15' W 076°34'0 0.0
2018-Mar-05 10:26N 39°15' W 076°34'0 0.0
2018-Mar-05 10:00N 39°15' W 076°34'0 0.0
2018-Mar-05 09:27N 39°15' W 076°34'1 3.1
2018-Mar-05 09:00N 39°13' W 076°34'1 0.3
2018-Mar-05 06:58N 39°13' W 076°35'0 0.0
2018-Mar-05 06:12N 39°13' W 076°35'0 0.0
2018-Mar-05 06:00N 39°13' W 076°35'0 0.0
2018-Mar-05 05:30N 39°13' W 076°35'0 0.0
2018-Mar-05 00:50N 39°13' W 076°35'0 1.2
2018-Mar-05 00:29N 39°13' W 076°35'0 0.4
2018-Mar-04 23:58N 39°13' W 076°35'0 0.0
2018-Mar-04 23:30N 39°13' W 076°35'0 0.0
2018-Mar-04 23:00N 39°13' W 076°35'0 0.0
2018-Mar-04 22:29N 39°13' W 076°35'0 0.0
2018-Mar-04 21:58N 39°13' W 076°35'0 0.0
2018-Mar-04 21:30N 39°13' W 076°35'0 0.0
2018-Mar-04 21:00N 39°13' W 076°35'0 0.0
2018-Mar-04 20:23N 39°13' W 076°35'0 0.0
2018-Mar-04 19:48N 39°13' W 076°35'1 3.9
2018-Mar-04 19:30N 39°13' W 076°33'1 2.9
2018-Mar-04 19:00N 39°15' W 076°34'0 0.0
2018-Mar-04 18:30N 39°15' W 076°34'0 0.0
2018-Mar-04 18:00N 39°15' W 076°34'0 0.0
2018-Mar-04 17:30N 39°15' W 076°34'0 0.0
2018-Mar-04 16:58N 39°15' W 076°34'0 0.0
2018-Mar-04 16:30N 39°15' W 076°34'0 0.0
2018-Mar-04 16:01N 39°15' W 076°34'0 0.0
2018-Mar-04 15:20N 39°15' W 076°34'0 0.0
2018-Mar-04 15:00N 39°15' W 076°34'0 0.0
2018-Mar-04 14:31N 39°15' W 076°34'0 0.0
2018-Mar-04 14:00N 39°15' W 076°34'0 0.0
2018-Mar-04 13:31N 39°15' W 076°34'0 0.0
2018-Mar-04 13:01N 39°15' W 076°34'0 0.0
2018-Mar-04 12:31N 39°15' W 076°34'0 0.0
2018-Mar-04 12:00N 39°15' W 076°34'0 0.0
2018-Mar-04 11:30N 39°15' W 076°34'0 0.0
2018-Mar-04 11:00N 39°15' W 076°34'0 0.0
2018-Mar-04 10:30N 39°15' W 076°34'0 0.0
2018-Mar-04 10:01N 39°15' W 076°34'0 0.0
2018-Mar-04 09:30N 39°15' W 076°34'0 0.0
2018-Mar-04 09:01N 39°15' W 076°34'0 0.0
2018-Mar-04 08:31N 39°15' W 076°34'0 0.0
2018-Mar-04 08:00N 39°15' W 076°34'0 0.0
2018-Mar-04 07:31N 39°15' W 076°34'0 0.0
2018-Mar-04 07:01N 39°15' W 076°34'0 0.0
2018-Mar-04 06:30N 39°15' W 076°34'0 0.0
2018-Mar-04 06:00N 39°15' W 076°34'0 0.0
2018-Mar-04 05:30N 39°15' W 076°34'0 0.0
2018-Mar-04 05:01N 39°15' W 076°34'0 0.0
2018-Mar-04 04:30N 39°15' W 076°34'0 0.0
2018-Mar-04 04:01N 39°15' W 076°34'0 0.0
2018-Mar-04 03:31N 39°15' W 076°34'0 0.0
2018-Mar-04 03:01N 39°15' W 076°34'0 0.0
2018-Mar-04 02:31N 39°15' W 076°34'0 0.0
2018-Mar-04 02:01N 39°15' W 076°34'0 0.0
2018-Mar-04 01:31N 39°15' W 076°34'0 0.0
2018-Mar-04 01:01N 39°15' W 076°34'0 0.0
2018-Mar-04 00:30N 39°15' W 076°34'0 0.0
2018-Mar-04 00:00N 39°15' W 076°34'0 0.0
2018-Mar-03 23:29N 39°15' W 076°34'0 0.0
2018-Mar-03 23:00N 39°15' W 076°34'0 0.0
2018-Mar-03 22:29N 39°15' W 076°34'0 0.0
2018-Mar-03 22:01N 39°15' W 076°34'0 0.0
2018-Mar-03 21:29N 39°15' W 076°34'0 0.0
2018-Mar-03 21:00N 39°15' W 076°34'0 0.0
2018-Mar-03 20:30N 39°15' W 076°34'0 0.0
2018-Mar-03 20:00N 39°15' W 076°34'0 0.0
2018-Mar-03 19:30N 39°15' W 076°34'0 0.0
2018-Mar-03 19:00N 39°15' W 076°34'0 0.0
2018-Mar-03 18:30N 39°15' W 076°34'0 0.0
2018-Mar-03 18:00N 39°15' W 076°34'0 0.1
2018-Mar-03 17:30N 39°15' W 076°34'2 3.5
2018-Mar-03 17:00N 39°16' W 076°36'0 0.0
2018-Mar-03 16:29N 39°16' W 076°36'0 0.0
2018-Mar-03 15:59N 39°16' W 076°36'0 0.0
2018-Mar-03 15:30N 39°16' W 076°36'0 0.0
2018-Mar-03 14:58N 39°16' W 076°36'0 0.0
2018-Mar-03 14:29N 39°16' W 076°36'0 0.0
2018-Mar-03 14:00N 39°16' W 076°36'0 0.0
2018-Mar-03 13:30N 39°16' W 076°36'3 6.1
2018-Mar-03 13:00N 39°14' W 076°33'2 3.0
2018-Mar-03 12:29N 39°13' W 076°35'0 0.0
2018-Mar-03 11:58N 39°13' W 076°35'0 0.0
2018-Mar-03 11:30N 39°13' W 076°35'0 0.0
2018-Mar-03 10:59N 39°13' W 076°35'0 0.0
2018-Mar-03 10:30N 39°13' W 076°35'0 0.0
2018-Mar-03 09:59N 39°13' W 076°35'0 0.0
2018-Mar-03 09:24N 39°13' W 076°35'2 5.1
2018-Mar-03 09:00N 39°14' W 076°33'1 2.5
2018-Mar-03 08:30N 39°15' W 076°33'1 2.0
2018-Mar-03 08:00N 39°15' W 076°34'1 2.0
2018-Mar-03 07:30N 39°15' W 076°33'0 0.0
2018-Mar-03 07:00N 39°15' W 076°33'0 0.0
2018-Mar-03 06:30N 39°15' W 076°33'0 0.0
2018-Mar-03 05:58N 39°15' W 076°33'0 0.0
2018-Mar-03 05:30N 39°15' W 076°33'0 0.0
2018-Mar-03 05:00N 39°15' W 076°33'0 0.0
2018-Mar-03 04:30N 39°15' W 076°33'0 0.0
2018-Mar-03 04:00N 39°15' W 076°33'0 0.0
2018-Mar-03 03:30N 39°15' W 076°33'0 0.0
2018-Mar-03 03:00N 39°15' W 076°33'0 0.0
2018-Mar-03 02:30N 39°15' W 076°33'0 0.0
2018-Mar-03 02:00N 39°15' W 076°33'0 0.0
2018-Mar-03 01:30N 39°15' W 076°33'0 0.0
2018-Mar-03 01:00N 39°15' W 076°33'0 0.0
2018-Mar-03 00:30N 39°15' W 076°33'0 0.0
2018-Mar-02 23:58N 39°15' W 076°33'0 0.0
2018-Mar-02 23:27N 39°15' W 076°33'1 1.9
2018-Mar-02 23:00N 39°15' W 076°34'0 0.5
2018-Mar-02 22:29N 39°15' W 076°34'0 0.0
2018-Mar-02 22:00N 39°15' W 076°34'0 0.0
2018-Mar-02 21:30N 39°15' W 076°34'1 2.1
2018-Mar-02 21:00N 39°15' W 076°33'0 0.0
2018-Mar-02 20:29N 39°15' W 076°33'0 0.0
2018-Mar-02 20:00N 39°15' W 076°33'0 0.0
2018-Mar-02 19:30N 39°15' W 076°33'0 0.0
2018-Mar-02 19:01N 39°15' W 076°33'0 0.0
2018-Mar-02 18:30N 39°15' W 076°33'0 0.0
2018-Mar-02 18:00N 39°15' W 076°33'0 0.0
2018-Mar-02 17:31N 39°15' W 076°33'0 0.0
2018-Mar-02 16:59N 39°15' W 076°33'0 0.0
2018-Mar-02 16:30N 39°15' W 076°33'0 0.0
2018-Mar-02 16:00N 39°15' W 076°33'  
Track history (hours):
 
Tides and Currents Weather Stations Pressure Air Temp Water Temp Dewpoint Dewpoint Depression Visibility Wind Speed Wind Dir Waves Ship Positions

Tuckahoe

Owner: Vane Line Bunkering, Philadelphia, PA. More information available from US FCC via Universal Licensing System and Coast Guard Vessel Documentation Center.

Last reported at 2018-Mar-12 15:52 UTC. Time now 2018-May-22 11:46 UTC.
Position N 39°15' W 076°34'.
Warning: this ship's position is months out of date.

Length 30 m; draft 3.8 m.

Type: Tow > 200 m length. MMSI: 367314520.

Date/timePositionNaut miles runAvg speedWind from/ knotsBaromVisibWave heightAir tempDewpointWater temp
2018-Mar-12 15:52N 39°15' W 076°34'0 0.0
2018-Mar-12 15:20N 39°15' W 076°34'0 0.0
2018-Mar-12 14:51N 39°15' W 076°34'0 0.0
2018-Mar-12 14:29N 39°15' W 076°34'0 0.0
2018-Mar-12 14:00N 39°15' W 076°34'1 2.1
2018-Mar-12 13:30N 39°16' W 076°34'2 3.6
2018-Mar-12 13:00N 39°14' W 076°33'2 2.0
2018-Mar-12 11:58N 39°13' W 076°35'0 0.0
2018-Mar-12 11:30N 39°13' W 076°35'0 0.0
2018-Mar-12 10:52N 39°13' W 076°35'0 0.0
2018-Mar-12 10:30N 39°13' W 076°35'0 0.0
2018-Mar-12 09:56N 39°13' W 076°35'0 0.0
2018-Mar-12 09:26N 39°13' W 076°35'0 0.0
2018-Mar-12 09:00N 39°13' W 076°35'0 0.0
2018-Mar-12 08:30N 39°13' W 076°35'0 0.0
2018-Mar-12 07:58N 39°13' W 076°35'2 4.6
2018-Mar-12 07:30N 39°15' W 076°33'1 1.2
2018-Mar-12 07:00N 39°15' W 076°34'0 0.0
2018-Mar-12 06:30N 39°15' W 076°34'0 0.0
2018-Mar-12 06:00N 39°15' W 076°34'0 0.0
2018-Mar-12 05:30N 39°15' W 076°34'0 0.0
2018-Mar-12 05:00N 39°15' W 076°34'0 0.0
2018-Mar-12 04:30N 39°15' W 076°34'0 0.0
2018-Mar-12 04:00N 39°15' W 076°34'0 0.0
2018-Mar-12 03:30N 39°15' W 076°34'0 0.0
2018-Mar-12 03:00N 39°15' W 076°34'0 0.0
2018-Mar-12 02:30N 39°15' W 076°34'0 0.0
2018-Mar-12 02:00N 39°15' W 076°34'0 0.0
2018-Mar-12 01:30N 39°15' W 076°34'0 0.0
2018-Mar-12 01:00N 39°15' W 076°34'0 0.0
2018-Mar-12 00:30N 39°15' W 076°34'0 0.0
2018-Mar-12 00:00N 39°15' W 076°34'1 1.9
2018-Mar-11 23:30N 39°15' W 076°33'5 9.9
2018-Mar-11 22:58N 39°11' W 076°28'5 9.8
2018-Mar-11 22:30N 39°08' W 076°24'10 9.6
2018-Mar-11 21:25N 38°57' W 076°24'0 0.2
2018-Mar-11 20:55N 38°57' W 076°24'0 0.1
2018-Mar-11 19:45N 38°57' W 076°24'5 7.3
2018-Mar-11 19:05N 39°02' W 076°23'8 9.3
2018-Mar-11 18:13N 39°10' W 076°26'2 9.4
2018-Mar-11 18:00N 39°11' W 076°28'5 9.5
2018-Mar-11 17:30N 39°14' W 076°33'3 5.4
2018-Mar-11 17:00N 39°16' W 076°36'2 3.1
2018-Mar-11 16:30N 39°15' W 076°34'0 0.0
2018-Mar-11 16:00N 39°15' W 076°34'0 0.0
2018-Mar-11 15:30N 39°15' W 076°34'0 0.0
2018-Mar-11 15:00N 39°15' W 076°34'1 1.3
2018-Mar-11 14:30N 39°15' W 076°33'1 1.4
2018-Mar-11 14:01N 39°15' W 076°34'2 3.4
2018-Mar-11 13:30N 39°16' W 076°36'2 3.9
2018-Mar-11 13:00N 39°15' W 076°33'0 0.1
2018-Mar-11 12:31N 39°15' W 076°33'1 1.9
2018-Mar-11 12:00N 39°14' W 076°33'2 4.1
2018-Mar-11 11:30N 39°13' W 076°35'0 0.0
2018-Mar-11 11:00N 39°13' W 076°35'0 0.0
2018-Mar-11 10:30N 39°13' W 076°35'0 0.0
2018-Mar-11 10:00N 39°13' W 076°35'1 2.7
2018-Mar-11 09:30N 39°13' W 076°33'1 2.9
2018-Mar-11 09:00N 39°15' W 076°34'0 0.0
2018-Mar-11 08:29N 39°15' W 076°34'0 0.0
2018-Mar-11 08:00N 39°15' W 076°34'0 0.0
2018-Mar-11 07:30N 39°15' W 076°34'0 0.0
2018-Mar-11 07:00N 39°15' W 076°34'0 0.0
2018-Mar-11 06:28N 39°15' W 076°34'0 0.0
2018-Mar-11 06:00N 39°15' W 076°34'0 0.0
2018-Mar-11 05:29N 39°15' W 076°34'0 0.0
2018-Mar-11 05:00N 39°15' W 076°34'0 0.0
2018-Mar-11 04:29N 39°15' W 076°34'0 0.9
2018-Mar-11 04:00N 39°15' W 076°34'611.0
2018-Mar-11 03:28N 39°11' W 076°28'510.7
2018-Mar-11 02:58N 39°07' W 076°24'15 2.4
2018-Mar-10 20:49N 38°52' W 076°24'0 0.1
2018-Mar-10 20:12N 38°52' W 076°24'18 4.4
2018-Mar-10 16:01N 39°10' W 076°26'010.4
2018-Mar-10 16:00N 39°10' W 076°26'510.3
2018-Mar-10 15:29N 39°13' W 076°32'2 4.8
2018-Mar-10 15:00N 39°13' W 076°35'0 0.0
2018-Mar-10 14:29N 39°13' W 076°35'0 0.0
2018-Mar-10 14:00N 39°13' W 076°35'0 0.0
2018-Mar-10 13:30N 39°13' W 076°35'0 0.0
2018-Mar-10 12:59N 39°13' W 076°35'0 0.0
2018-Mar-10 12:30N 39°13' W 076°35'0 0.0
2018-Mar-10 12:00N 39°13' W 076°35'0 0.0
2018-Mar-10 11:30N 39°13' W 076°35'0 0.0
2018-Mar-10 10:59N 39°13' W 076°35'2 4.0
2018-Mar-10 10:30N 39°14' W 076°33'1 2.7
2018-Mar-10 10:00N 39°15' W 076°34'0 0.0
2018-Mar-10 09:30N 39°15' W 076°34'0 0.0
2018-Mar-10 08:59N 39°15' W 076°34'0 0.0
2018-Mar-10 08:30N 39°15' W 076°34'0 0.0
2018-Mar-10 08:00N 39°15' W 076°34'0 0.0
2018-Mar-10 07:30N 39°15' W 076°34'0 0.0
2018-Mar-10 07:00N 39°15' W 076°34'0 0.0
2018-Mar-10 06:30N 39°15' W 076°34'0 0.0
2018-Mar-10 06:00N 39°15' W 076°34'0 0.0
2018-Mar-10 05:30N 39°15' W 076°34'0 0.0
2018-Mar-10 05:00N 39°15' W 076°34'0 0.0
2018-Mar-10 04:29N 39°15' W 076°34'0 0.0
2018-Mar-10 04:00N 39°15' W 076°34'0 0.0
2018-Mar-10 03:30N 39°15' W 076°34'0 0.0
2018-Mar-10 03:00N 39°15' W 076°34'0 0.0
2018-Mar-10 02:30N 39°15' W 076°34'0 0.0
2018-Mar-10 02:00N 39°15' W 076°34'0 0.0
2018-Mar-10 01:30N 39°15' W 076°34'0 0.0
2018-Mar-10 01:00N 39°15' W 076°34'0 0.0
2018-Mar-10 00:30N 39°15' W 076°34'0 0.0
2018-Mar-10 00:00N 39°15' W 076°34'0 0.0
2018-Mar-09 23:30N 39°15' W 076°34'1 1.8
2018-Mar-09 23:01N 39°15' W 076°33'1 1.2
2018-Mar-09 22:30N 39°15' W 076°33'0 0.0
2018-Mar-09 22:01N 39°15' W 076°33'0 0.0
2018-Mar-09 21:30N 39°15' W 076°33'0 0.0
2018-Mar-09 20:59N 39°15' W 076°33'0 0.2
2018-Mar-09 20:30N 39°15' W 076°33'1 2.6
2018-Mar-09 19:59N 39°13' W 076°33'1 1.3
2018-Mar-09 19:26N 39°14' W 076°34'0 0.0
2018-Mar-09 19:00N 39°14' W 076°34'0 0.0
2018-Mar-09 18:31N 39°14' W 076°34'1 1.4
2018-Mar-09 18:01N 39°13' W 076°33'1 2.9
2018-Mar-09 17:31N 39°15' W 076°34'0 0.0
2018-Mar-09 17:00N 39°15' W 076°34'0 0.0
2018-Mar-09 16:30N 39°15' W 076°34'0 0.1
2018-Mar-09 16:01N 39°15' W 076°34'1 2.7
2018-Mar-09 15:30N 39°13' W 076°34'0 0.5
2018-Mar-09 15:00N 39°14' W 076°34'1 2.2
2018-Mar-09 14:30N 39°15' W 076°34'2 3.6
2018-Mar-09 13:59N 39°13' W 076°35'2 4.3
2018-Mar-09 13:30N 39°15' W 076°33'1 1.4
2018-Mar-09 13:00N 39°15' W 076°34'0 0.0
2018-Mar-09 12:30N 39°15' W 076°34'0 0.0
2018-Mar-09 12:01N 39°15' W 076°34'0 0.0
2018-Mar-09 11:31N 39°15' W 076°34'0 0.0
2018-Mar-09 11:01N 39°15' W 076°34'0 0.0
2018-Mar-09 10:30N 39°15' W 076°34'0 0.0
2018-Mar-09 09:59N 39°15' W 076°34'0 0.0
2018-Mar-09 09:30N 39°15' W 076°34'0 0.0
2018-Mar-09 08:59N 39°15' W 076°34'0 0.0
2018-Mar-09 08:31N 39°15' W 076°34'0 0.0
2018-Mar-09 08:00N 39°15' W 076°34'0 0.0
2018-Mar-09 07:31N 39°15' W 076°34'0 0.0
2018-Mar-09 07:01N 39°15' W 076°34'0 0.0
2018-Mar-09 06:30N 39°15' W 076°34'0 0.0
2018-Mar-09 06:01N 39°15' W 076°34'0 0.0
2018-Mar-09 05:30N 39°15' W 076°34'0 0.0
2018-Mar-09 05:00N 39°15' W 076°34'0 0.0
2018-Mar-09 04:30N 39°15' W 076°34'0 0.0
2018-Mar-09 04:00N 39°15' W 076°34'0 0.0
2018-Mar-09 03:30N 39°15' W 076°34'0 0.0
2018-Mar-09 03:00N 39°15' W 076°34'0 0.0
2018-Mar-09 02:30N 39°15' W 076°34'0 0.0
2018-Mar-09 02:00N 39°15' W 076°34'0 0.0
2018-Mar-09 01:30N 39°15' W 076°34'0 0.0
2018-Mar-09 01:00N 39°15' W 076°34'0 0.0
2018-Mar-09 00:30N 39°15' W 076°34'0 0.0
2018-Mar-09 00:00N 39°15' W 076°34'0 0.0
2018-Mar-08 23:30N 39°15' W 076°34'0 0.0
2018-Mar-08 23:00N 39°15' W 076°34'0 0.0
2018-Mar-08 22:30N 39°15' W 076°34'0 0.0
2018-Mar-08 22:00N 39°15' W 076°34'0 0.0
2018-Mar-08 21:30N 39°15' W 076°34'0 0.0
2018-Mar-08 21:00N 39°15' W 076°34'0 0.0
2018-Mar-08 20:26N 39°15' W 076°34'2 0.1
2018-Mar-07 22:00N 39°15' W 076°32'0 0.0
2018-Mar-07 21:30N 39°15' W 076°32'0 0.0
2018-Mar-07 20:54N 39°15' W 076°32'1 3.7
2018-Mar-07 20:30N 39°15' W 076°34'5 7.9
2018-Mar-07 19:54N 39°12' W 076°29'1 2.9
2018-Mar-07 19:31N 39°13' W 076°29'1 3.0
2018-Mar-07 19:00N 39°12' W 076°30'3 5.8
2018-Mar-07 18:30N 39°15' W 076°32'1 2.8
2018-Mar-07 17:59N 39°13' W 076°32'3 5.3
2018-Mar-07 17:30N 39°13' W 076°29'1 2.4
2018-Mar-07 17:01N 39°12' W 076°29'4 8.3
2018-Mar-07 16:30N 39°13' W 076°35'0 0.6
2018-Mar-07 16:00N 39°13' W 076°34'1 2.7
2018-Mar-07 15:30N 39°14' W 076°34'0 0.6
2018-Mar-07 15:00N 39°15' W 076°34'0 0.6
2018-Mar-07 14:30N 39°14' W 076°34'1 2.5
2018-Mar-07 14:01N 39°13' W 076°34'1 2.6
2018-Mar-07 13:30N 39°14' W 076°33'1 2.4
2018-Mar-07 12:53N 39°15' W 076°34'0 0.0
2018-Mar-07 12:29N 39°15' W 076°34'0 0.0
2018-Mar-07 11:58N 39°15' W 076°34'0 0.0
2018-Mar-07 11:29N 39°15' W 076°34'0 0.0
2018-Mar-07 11:00N 39°15' W 076°34'0 0.0
2018-Mar-07 10:30N 39°15' W 076°34'0 0.0
2018-Mar-07 10:00N 39°15' W 076°34'0 0.0
2018-Mar-07 09:30N 39°15' W 076°34'0 0.0
2018-Mar-07 08:57N 39°15' W 076°34'0 0.0
2018-Mar-07 08:30N 39°15' W 076°34'0 0.0
2018-Mar-07 08:00N 39°15' W 076°34'2 4.8
2018-Mar-07 07:30N 39°13' W 076°32'2 4.4
2018-Mar-07 07:00N 39°13' W 076°29'0 0.0
2018-Mar-07 06:30N 39°13' W 076°29'0 0.0
2018-Mar-07 06:00N 39°13' W 076°29'0 0.0
2018-Mar-07 05:30N 39°13' W 076°29'0 0.0
2018-Mar-07 04:58N 39°13' W 076°29'0 0.0
2018-Mar-07 04:30N 39°13' W 076°29'0 0.0
2018-Mar-07 03:59N 39°13' W 076°29'1 2.2
2018-Mar-07 03:30N 39°12' W 076°30'4 7.2
2018-Mar-07 03:00N 39°15' W 076°32'0 0.6
2018-Mar-07 02:30N 39°15' W 076°33'1 3.0
2018-Mar-07 02:01N 39°13' W 076°33'1 1.5
2018-Mar-07 01:27N 39°13' W 076°34'2 4.3
2018-Mar-07 01:00N 39°15' W 076°32'0 0.0
2018-Mar-07 00:28N 39°15' W 076°32'0 0.0
2018-Mar-07 00:00N 39°15' W 076°32'0 0.0
2018-Mar-06 23:30N 39°15' W 076°32'0 0.0
2018-Mar-06 23:00N 39°15' W 076°32'0 0.0
2018-Mar-06 22:30N 39°15' W 076°32'0 0.0
2018-Mar-06 22:00N 39°15' W 076°32'0 0.0
2018-Mar-06 21:30N 39°15' W 076°32'0 0.0
2018-Mar-06 21:00N 39°15' W 076°32'0 0.0
2018-Mar-06 20:30N 39°15' W 076°32'0 0.0
2018-Mar-06 19:57N 39°15' W 076°32'0 0.0
2018-Mar-06 19:30N 39°15' W 076°32'0 0.0
2018-Mar-06 19:00N 39°15' W 076°32'0 0.0
2018-Mar-06 18:30N 39°15' W 076°32'3 5.1
2018-Mar-06 18:00N 39°13' W 076°35'0 0.4
2018-Mar-06 17:30N 39°13' W 076°35'0 0.0
2018-Mar-06 16:58N 39°13' W 076°35'1 1.5
2018-Mar-06 16:30N 39°13' W 076°34'1 2.5
2018-Mar-06 16:00N 39°14' W 076°33'0 0.4
2018-Mar-06 15:27N 39°15' W 076°33'2 4.4
2018-Mar-06 15:00N 39°13' W 076°35'0 0.7
2018-Mar-06 14:29N 39°13' W 076°34'0 0.7
2018-Mar-06 14:00N 39°13' W 076°35'2 4.3
2018-Mar-06 13:30N 39°15' W 076°33'1 1.2
2018-Mar-06 13:00N 39°15' W 076°34'0 0.0
2018-Mar-06 12:30N 39°15' W 076°34'0 0.0
2018-Mar-06 11:58N 39°15' W 076°34'0 0.0
2018-Mar-06 11:30N 39°15' W 076°34'0 0.0
2018-Mar-06 11:00N 39°15' W 076°34'0 0.0
2018-Mar-06 10:31N 39°15' W 076°34'0 0.0
2018-Mar-06 10:00N 39°15' W 076°34'0 0.0
2018-Mar-06 09:31N 39°15' W 076°34'0 0.0
2018-Mar-06 09:00N 39°15' W 076°34'0 0.0
2018-Mar-06 08:30N 39°15' W 076°34'0 0.0
2018-Mar-06 08:00N 39°15' W 076°34'0 0.0
2018-Mar-06 07:30N 39°15' W 076°34'0 0.0
2018-Mar-06 07:00N 39°15' W 076°34'0 0.0
2018-Mar-06 06:30N 39°15' W 076°34'0 0.0
2018-Mar-06 06:01N 39°15' W 076°34'0 0.0
2018-Mar-06 05:30N 39°15' W 076°34'0 0.0
2018-Mar-06 05:00N 39°15' W 076°34'0 0.0
2018-Mar-06 04:30N 39°15' W 076°34'0 0.0
2018-Mar-06 03:59N 39°15' W 076°34'0 0.0
2018-Mar-06 03:30N 39°15' W 076°34'0 0.0
2018-Mar-06 03:00N 39°15' W 076°34'0 0.0
2018-Mar-06 02:30N 39°15' W 076°34'0 0.0
2018-Mar-06 02:00N 39°15' W 076°34'0 0.0
2018-Mar-06 01:30N 39°15' W 076°34'0 0.0
2018-Mar-06 01:00N 39°15' W 076°34'0 0.0
2018-Mar-06 00:30N 39°15' W 076°34'0 0.0
2018-Mar-06 00:00N 39°15' W 076°34'0 0.0
2018-Mar-05 23:30N 39°15' W 076°34'0 0.0
2018-Mar-05 23:00N 39°15' W 076°34'0 0.0
2018-Mar-05 22:30N 39°15' W 076°34'0 0.0
2018-Mar-05 22:00N 39°15' W 076°34'0 0.0
2018-Mar-05 21:30N 39°15' W 076°34'0 0.0
2018-Mar-05 21:00N 39°15' W 076°34'0 0.0
2018-Mar-05 20:30N 39°15' W 076°34'0 0.1
2018-Mar-05 20:00N 39°15' W 076°34'1 2.1
2018-Mar-05 19:30N 39°16' W 076°34'0 0.0
2018-Mar-05 19:00N 39°16' W 076°34'0 0.0
2018-Mar-05 18:30N 39°16' W 076°34'0 0.0
2018-Mar-05 18:00N 39°16' W 076°34'0 0.0
2018-Mar-05 17:30N 39°16' W 076°34'0 0.0
2018-Mar-05 17:00N 39°16' W 076°34'0 0.1
2018-Mar-05 16:30N 39°16' W 076°34'1 2.1
2018-Mar-05 16:01N 39°15' W 076°34'0 0.0
2018-Mar-05 15:03N 39°15' W 076°34'0 0.0
2018-Mar-05 14:40N 39°15' W 076°34'0 0.0
2018-Mar-05 14:28N 39°15' W 076°34'0 0.0
2018-Mar-05 13:44N 39°15' W 076°34'0 0.0
2018-Mar-05 13:30N 39°15' W 076°34'0 0.0
2018-Mar-05 12:48N 39°15' W 076°34'0 0.0
2018-Mar-05 12:28N 39°15' W 076°34'0 0.0
2018-Mar-05 11:56N 39°15' W 076°34'0 0.0
2018-Mar-05 11:30N 39°15' W 076°34'0 0.0
2018-Mar-05 10:56N 39°15' W 076°34'0 0.0
2018-Mar-05 10:26N 39°15' W 076°34'0 0.0
2018-Mar-05 10:00N 39°15' W 076°34'0 0.0
2018-Mar-05 09:27N 39°15' W 076°34'1 3.1
2018-Mar-05 09:00N 39°13' W 076°34'1 0.3
2018-Mar-05 06:58N 39°13' W 076°35'0 0.0
2018-Mar-05 06:12N 39°13' W 076°35'0 0.0
2018-Mar-05 06:00N 39°13' W 076°35'0 0.0
2018-Mar-05 05:30N 39°13' W 076°35'0 0.0
2018-Mar-05 00:50N 39°13' W 076°35'0 1.2
2018-Mar-05 00:29N 39°13' W 076°35'0 0.4
2018-Mar-04 23:58N 39°13' W 076°35'0 0.0
2018-Mar-04 23:30N 39°13' W 076°35'0 0.0
2018-Mar-04 23:00N 39°13' W 076°35'0 0.0
2018-Mar-04 22:29N 39°13' W 076°35'0 0.0
2018-Mar-04 21:58N 39°13' W 076°35'0 0.0
2018-Mar-04 21:30N 39°13' W 076°35'0 0.0
2018-Mar-04 21:00N 39°13' W 076°35'0 0.0
2018-Mar-04 20:23N 39°13' W 076°35'0 0.0
2018-Mar-04 19:48N 39°13' W 076°35'1 3.9
2018-Mar-04 19:30N 39°13' W 076°33'1 2.9
2018-Mar-04 19:00N 39°15' W 076°34'0 0.0
2018-Mar-04 18:30N 39°15' W 076°34'0 0.0
2018-Mar-04 18:00N 39°15' W 076°34'0 0.0
2018-Mar-04 17:30N 39°15' W 076°34'0 0.0
2018-Mar-04 16:58N 39°15' W 076°34'0 0.0
2018-Mar-04 16:30N 39°15' W 076°34'0 0.0
2018-Mar-04 16:01N 39°15' W 076°34'0 0.0
2018-Mar-04 15:20N 39°15' W 076°34'0 0.0
2018-Mar-04 15:00N 39°15' W 076°34'0 0.0
2018-Mar-04 14:31N 39°15' W 076°34'0 0.0
2018-Mar-04 14:00N 39°15' W 076°34'0 0.0
2018-Mar-04 13:31N 39°15' W 076°34'0 0.0
2018-Mar-04 13:01N 39°15' W 076°34'0 0.0
2018-Mar-04 12:31N 39°15' W 076°34'0 0.0
2018-Mar-04 12:00N 39°15' W 076°34'0 0.0
2018-Mar-04 11:30N 39°15' W 076°34'0 0.0
2018-Mar-04 11:00N 39°15' W 076°34'0 0.0
2018-Mar-04 10:30N 39°15' W 076°34'0 0.0
2018-Mar-04 10:01N 39°15' W 076°34'0 0.0
2018-Mar-04 09:30N 39°15' W 076°34'0 0.0
2018-Mar-04 09:01N 39°15' W 076°34'0 0.0
2018-Mar-04 08:31N 39°15' W 076°34'0 0.0
2018-Mar-04 08:00N 39°15' W 076°34'0 0.0
2018-Mar-04 07:31N 39°15' W 076°34'0 0.0
2018-Mar-04 07:01N 39°15' W 076°34'0 0.0
2018-Mar-04 06:30N 39°15' W 076°34'0 0.0
2018-Mar-04 06:00N 39°15' W 076°34'0 0.0
2018-Mar-04 05:30N 39°15' W 076°34'0 0.0
2018-Mar-04 05:01N 39°15' W 076°34'0 0.0
2018-Mar-04 04:30N 39°15' W 076°34'0 0.0
2018-Mar-04 04:01N 39°15' W 076°34'0 0.0
2018-Mar-04 03:31N 39°15' W 076°34'0 0.0
2018-Mar-04 03:01N 39°15' W 076°34'0 0.0
2018-Mar-04 02:31N 39°15' W 076°34'0 0.0
2018-Mar-04 02:01N 39°15' W 076°34'0 0.0
2018-Mar-04 01:31N 39°15' W 076°34'0 0.0
2018-Mar-04 01:01N 39°15' W 076°34'0 0.0
2018-Mar-04 00:30N 39°15' W 076°34'0 0.0
2018-Mar-04 00:00N 39°15' W 076°34'0 0.0
2018-Mar-03 23:29N 39°15' W 076°34'0 0.0
2018-Mar-03 23:00N 39°15' W 076°34'0 0.0
2018-Mar-03 22:29N 39°15' W 076°34'0 0.0
2018-Mar-03 22:01N 39°15' W 076°34'0 0.0
2018-Mar-03 21:29N 39°15' W 076°34'0 0.0
2018-Mar-03 21:00N 39°15' W 076°34'0 0.0
2018-Mar-03 20:30N 39°15' W 076°34'0 0.0
2018-Mar-03 20:00N 39°15' W 076°34'0 0.0
2018-Mar-03 19:30N 39°15' W 076°34'0 0.0
2018-Mar-03 19:00N 39°15' W 076°34'0 0.0
2018-Mar-03 18:30N 39°15' W 076°34'0 0.0
2018-Mar-03 18:00N 39°15' W 076°34'0 0.1
2018-Mar-03 17:30N 39°15' W 076°34'2 3.5
2018-Mar-03 17:00N 39°16' W 076°36'0 0.0
2018-Mar-03 16:29N 39°16' W 076°36'0 0.0
2018-Mar-03 15:59N 39°16' W 076°36'0 0.0
2018-Mar-03 15:30N 39°16' W 076°36'0 0.0
2018-Mar-03 14:58N 39°16' W 076°36'0 0.0
2018-Mar-03 14:29N 39°16' W 076°36'0 0.0
2018-Mar-03 14:00N 39°16' W 076°36'0 0.0
2018-Mar-03 13:30N 39°16' W 076°36'3 6.1
2018-Mar-03 13:00N 39°14' W 076°33'2 3.0
2018-Mar-03 12:29N 39°13' W 076°35'0 0.0
2018-Mar-03 11:58N 39°13' W 076°35'0 0.0
2018-Mar-03 11:30N 39°13' W 076°35'0 0.0
2018-Mar-03 10:59N 39°13' W 076°35'0 0.0
2018-Mar-03 10:30N 39°13' W 076°35'0 0.0
2018-Mar-03 09:59N 39°13' W 076°35'0 0.0
2018-Mar-03 09:24N 39°13' W 076°35'2 5.1
2018-Mar-03 09:00N 39°14' W 076°33'1 2.5
2018-Mar-03 08:30N 39°15' W 076°33'1 2.0
2018-Mar-03 08:00N 39°15' W 076°34'1 2.0
2018-Mar-03 07:30N 39°15' W 076°33'0 0.0
2018-Mar-03 07:00N 39°15' W 076°33'0 0.0
2018-Mar-03 06:30N 39°15' W 076°33'0 0.0
2018-Mar-03 05:58N 39°15' W 076°33'0 0.0
2018-Mar-03 05:30N 39°15' W 076°33'0 0.0
2018-Mar-03 05:00N 39°15' W 076°33'0 0.0
2018-Mar-03 04:30N 39°15' W 076°33'0 0.0
2018-Mar-03 04:00N 39°15' W 076°33'0 0.0
2018-Mar-03 03:30N 39°15' W 076°33'0 0.0
2018-Mar-03 03:00N 39°15' W 076°33'0 0.0
2018-Mar-03 02:30N 39°15' W 076°33'0 0.0
2018-Mar-03 02:00N 39°15' W 076°33'0 0.0
2018-Mar-03 01:30N 39°15' W 076°33'0 0.0
2018-Mar-03 01:00N 39°15' W 076°33'0 0.0
2018-Mar-03 00:30N 39°15' W 076°33'0 0.0
2018-Mar-02 23:58N 39°15' W 076°33'0 0.0
2018-Mar-02 23:27N 39°15' W 076°33'1 1.9
2018-Mar-02 23:00N 39°15' W 076°34'0 0.5
2018-Mar-02 22:29N 39°15' W 076°34'0 0.0
2018-Mar-02 22:00N 39°15' W 076°34'0 0.0
2018-Mar-02 21:30N 39°15' W 076°34'1 2.1
2018-Mar-02 21:00N 39°15' W 076°33'0 0.0
2018-Mar-02 20:29N 39°15' W 076°33'0 0.0
2018-Mar-02 20:00N 39°15' W 076°33'0 0.0
2018-Mar-02 19:30N 39°15' W 076°33'0 0.0
2018-Mar-02 19:01N 39°15' W 076°33'0 0.0
2018-Mar-02 18:30N 39°15' W 076°33'0 0.0
2018-Mar-02 18:00N 39°15' W 076°33'0 0.0
2018-Mar-02 17:31N 39°15' W 076°33'0 0.0
2018-Mar-02 16:59N 39°15' W 076°33'0 0.0
2018-Mar-02 16:30N 39°15' W 076°33'0 0.0
2018-Mar-02 16:00N 39°15' W 076°33'  

Dump ship's entire track history